Time;durP1;ratioP1;P1;durP2;ratioP2;P2;SDS_P1;SDS_P2;PMS_P1;PMS_P2;Temp;Humidity;BMP_temperature;BMP_pressure;BME280_temperature;BME280_humidity;BME280_pressure;Samples;Min_cycle;Max_cycle;Signal;HPM_P1;HPM_P2
2023/07/08 00:05:21;;;;;;;2.58;1.33;;;19.50;99.90;;;;;;12499559;28;20091;-37
2023/07/08 00:11:23;;;;;;;4.90;1.70;;;19.40;99.90;;;;;;12521200;28;20413;-37
2023/07/08 00:17:25;;;;;;;5.45;1.75;;;19.30;99.90;;;;;;12501387;28;20123;-37
2023/07/08 00:23:27;;;;;;;3.83;1.58;;;19.20;99.90;;;;;;12505688;28;20049;-36
2023/07/08 00:29:29;;;;;;;3.10;1.52;;;19.20;99.90;;;;;;12526933;28;20543;-37
2023/07/08 00:35:41;;;;;;;4.70;1.85;;;19.10;99.90;;;;;;12521804;28;20049;-37
2023/07/08 00:41:44;;;;;;;3.97;2.03;;;19.00;99.90;;;;;;12503472;28;20056;-38
2023/07/08 00:47:46;;;;;;;2.75;1.50;;;19.00;99.90;;;;;;12510871;28;20143;-37
2023/07/08 00:53:48;;;;;;;3.10;1.58;;;19.10;99.90;;;;;;12520884;28;20606;-37
2023/07/08 00:59:57;;;;;;;4.47;1.55;;;19.10;99.90;;;;;;12518853;28;20439;-37
2023/07/08 01:05:59;;;;;;;3.38;1.60;;;19.00;99.90;;;;;;12502320;28;20056;-37
2023/07/08 01:12:05;;;;;;;4.68;1.73;;;19.10;99.90;;;;;;12531739;28;20425;-36
2023/07/08 01:18:09;;;;;;;5.25;1.60;;;19.10;99.90;;;;;;12487341;28;20044;-37
2023/07/08 01:24:12;;;;;;;5.00;1.60;;;19.10;99.90;;;;;;12515341;28;20052;-37
2023/07/08 01:30:15;;;;;;;4.78;1.50;;;19.00;99.90;;;;;;12511496;28;20456;-37
2023/07/08 01:36:17;;;;;;;7.43;1.80;;;19.30;99.90;;;;;;12517253;28;20049;-38
2023/07/08 01:42:19;;;;;;;4.10;1.60;;;19.50;99.90;;;;;;12485904;28;20350;-37
2023/07/08 01:48:23;;;;;;;3.75;2.17;;;19.50;99.90;;;;;;12509328;28;20056;-37
2023/07/08 01:54:25;;;;;;;5.68;1.60;;;19.20;99.90;;;;;;12510975;28;20084;-37
2023/07/08 02:00:26;;;;;;;6.80;1.63;;;19.20;99.90;;;;;;12495209;28;20123;-36
2023/07/08 02:06:28;;;;;;;4.25;1.80;;;19.00;99.90;;;;;;12517863;28;20076;-36
2023/07/08 02:12:30;;;;;;;4.63;2.13;;;18.90;99.90;;;;;;12522453;28;20060;-36
2023/07/08 02:18:32;;;;;;;3.47;1.88;;;18.80;99.90;;;;;;12506816;28;20084;-36
2023/07/08 02:24:34;;;;;;;3.08;1.40;;;18.50;99.90;;;;;;12525647;28;20475;-36
2023/07/08 02:30:36;;;;;;;4.18;1.80;;;18.50;99.90;;;;;;12530836;28;20056;-37
2023/07/08 02:36:38;;;;;;;4.10;1.85;;;18.50;99.90;;;;;;12528638;28;20099;-36
2023/07/08 02:42:40;;;;;;;3.97;1.77;;;18.50;99.90;;;;;;12547246;28;20037;-37
2023/07/08 02:48:42;;;;;;;4.32;1.90;;;18.50;99.90;;;;;;12528125;28;20201;-36
2023/07/08 02:54:44;;;;;;;3.08;1.73;;;18.60;99.90;;;;;;12491282;28;20124;-36
2023/07/08 03:00:50;;;;;;;3.25;1.80;;;18.60;99.90;;;;;;12482299;28;20542;-37
2023/07/08 03:06:53;;;;;;;2.75;1.77;;;18.50;99.90;;;;;;12456035;28;20053;-36
2023/07/08 03:12:55;;;;;;;3.83;2.03;;;18.40;99.90;;;;;;12470267;28;20140;-37
2023/07/08 03:18:57;;;;;;;3.10;1.45;;;18.50;99.90;;;;;;12475911;28;20109;-37
2023/07/08 03:24:59;;;;;;;7.10;2.20;;;18.50;99.90;;;;;;12462221;28;20057;-36
2023/07/08 03:31:01;;;;;;;5.28;2.50;;;18.40;99.90;;;;;;12459993;28;20080;-37
2023/07/08 03:37:03;;;;;;;5.28;1.90;;;18.40;99.90;;;;;;12465208;28;20057;-37
2023/07/08 03:43:05;;;;;;;6.00;1.90;;;18.50;99.90;;;;;;12450425;28;20103;-37
2023/07/08 03:49:09;;;;;;;5.85;2.00;;;18.90;99.90;;;;;;12444901;28;20109;-37
2023/07/08 03:55:12;;;;;;;2.90;1.63;;;18.90;99.90;;;;;;12463170;28;20576;-37
2023/07/08 04:01:20;;;;;;;4.60;1.85;;;18.70;99.90;;;;;;12459260;28;20049;-38
2023/07/08 04:07:22;;;;;;;4.72;2.00;;;18.60;99.90;;;;;;12447882;28;20077;-37
2023/07/08 04:13:24;;;;;;;4.32;1.88;;;18.50;99.90;;;;;;12445403;28;20061;-37
2023/07/08 04:19:26;;;;;;;4.47;1.98;;;19.70;99.90;;;;;;12453650;28;20079;-37
2023/07/08 04:25:29;;;;;;;5.07;1.77;;;21.30;99.90;;;;;;12458560;28;20045;-37
2023/07/08 04:31:31;;;;;;;4.68;1.70;;;21.30;99.90;;;;;;12457758;28;20057;-37
2023/07/08 04:37:33;;;;;;;3.50;1.90;;;20.90;99.90;;;;;;12468555;28;20053;-37
2023/07/08 04:43:36;;;;;;;4.25;1.58;;;20.90;99.90;;;;;;12453985;28;20131;-37
2023/07/08 04:49:38;;;;;;;7.57;1.83;;;21.70;99.90;;;;;;12454973;28;20088;-37
2023/07/08 04:55:47;;;;;;;3.67;1.42;;;22.40;99.90;;;;;;12460026;28;20045;-37
2023/07/08 05:01:49;;;;;;;4.50;2.00;;;22.00;99.90;;;;;;12464331;28;20396;-37
2023/07/08 05:07:51;;;;;;;3.70;1.70;;;21.60;99.90;;;;;;12458812;28;20052;-37
2023/07/08 05:13:53;;;;;;;4.40;1.90;;;21.20;99.90;;;;;;12456070;28;20428;-37
2023/07/08 05:19:57;;;;;;;3.53;1.80;;;20.60;99.90;;;;;;12453649;28;20481;-36
2023/07/08 05:26:01;;;;;;;4.05;2.00;;;19.70;99.90;;;;;;12439732;28;20057;-37
2023/07/08 05:32:03;;;;;;;3.03;2.08;;;19.00;99.90;;;;;;12471666;28;20521;-37
2023/07/08 05:38:05;;;;;;;4.90;1.90;;;19.00;99.90;;;;;;12461317;28;20128;-36
2023/07/08 05:44:07;;;;;;;4.55;2.00;;;19.30;99.90;;;;;;12447171;28;20042;-37
2023/07/08 05:50:09;;;;;;;4.68;2.00;;;19.50;99.90;;;;;;12452044;28;20049;-37
2023/07/08 05:56:11;;;;;;;4.22;2.10;;;19.60;99.90;;;;;;12450424;28;20050;-38
2023/07/08 06:02:13;;;;;;;4.50;1.92;;;19.70;99.90;;;;;;12477053;28;20041;-38
2023/07/08 06:08:15;;;;;;;6.05;1.95;;;19.90;99.90;;;;;;12459941;28;20084;-38
2023/07/08 06:14:17;;;;;;;2.55;1.60;;;20.00;99.90;;;;;;12447254;28;20274;-37
2023/07/08 06:20:19;;;;;;;4.10;2.08;;;20.00;99.90;;;;;;12486913;28;20802;-37
2023/07/08 06:26:21;;;;;;;7.10;1.95;;;20.40;99.90;;;;;;12455501;28;20171;-37
2023/07/08 06:32:23;;;;;;;4.03;1.70;;;20.80;99.90;;;;;;12468409;28;20096;-37
2023/07/08 06:38:27;;;;;;;4.15;2.10;;;21.40;99.90;;;;;;12477556;28;20410;-39
2023/07/08 06:44:29;;;;;;;6.35;1.92;;;21.80;99.90;;;;;;12466875;28;20050;-37
2023/07/08 06:50:32;;;;;;;3.53;2.03;;;22.00;99.90;;;;;;12482116;28;20509;-39
2023/07/08 06:56:34;;;;;;;8.38;1.90;;;22.10;99.90;;;;;;12474960;28;20049;-39
2023/07/08 07:02:36;;;;;;;6.47;2.05;;;22.20;99.90;;;;;;12499471;28;20057;-36
2023/07/08 07:08:38;;;;;;;6.63;2.13;;;22.40;99.90;;;;;;12487092;28;20072;-37
2023/07/08 07:14:40;;;;;;;5.90;2.20;;;22.60;99.90;;;;;;12481117;28;20402;-36
2023/07/08 07:20:54;;;;;;;4.47;1.88;;;22.70;99.90;;;;;;12464505;28;20100;-38
2023/07/08 07:26:56;;;;;;;5.60;2.03;;;22.60;99.90;;;;;;12458015;28;20528;-39
2023/07/08 07:33:01;;;;;;;5.15;2.53;;;22.70;99.90;;;;;;12465654;28;20049;-38
2023/07/08 07:39:03;;;;;;;5.85;2.25;;;22.80;99.90;;;;;;12471055;28;20053;-40
2023/07/08 07:45:06;;;;;;;5.75;2.13;;;23.00;99.90;;;;;;12452986;28;20038;-39
2023/07/08 07:51:10;;;;;;;2.58;1.80;;;23.10;99.90;;;;;;12463485;28;20075;-38
2023/07/08 07:57:12;;;;;;;4.97;2.10;;;23.30;99.90;;;;;;12461847;28;20049;-38
2023/07/08 08:03:16;;;;;;;6.68;2.53;;;23.40;99.90;;;;;;12457246;28;20680;-37
2023/07/08 08:09:20;;;;;;;7.40;2.70;;;23.40;99.90;;;;;;12461297;28;20054;-38
2023/07/08 08:15:22;;;;;;;5.43;2.33;;;23.70;99.90;;;;;;12504926;28;20048;-38
2023/07/08 08:21:24;;;;;;;4.28;2.35;;;23.90;99.90;;;;;;12513479;28;20041;-38
2023/07/08 08:27:26;;;;;;;7.18;2.28;;;24.20;99.90;;;;;;12512249;28;20052;-39
2023/07/08 08:33:28;;;;;;;7.05;2.50;;;24.40;99.90;;;;;;12500202;28;20053;-39
2023/07/08 08:39:30;;;;;;;7.47;2.40;;;24.60;99.90;;;;;;12510478;28;20127;-39
2023/07/08 08:45:43;;;;;;;6.47;2.28;;;24.80;99.90;;;;;;12512315;28;20045;-38
2023/07/08 08:51:50;;;;;;;4.22;2.22;;;25.10;99.90;;;;;;12499157;28;20056;-39
2023/07/08 08:58:11;;;;;;;4.55;2.00;;;25.50;99.90;;;;;;12520497;28;20049;-39
2023/07/08 09:04:23;;;;;;;3.53;2.20;;;25.90;99.90;;;;;;12508611;28;20041;-39
2023/07/08 09:10:43;;;;;;;5.38;2.55;;;26.20;99.90;;;;;;12517879;28;20049;-39
2023/07/08 09:16:56;;;;;;;5.32;2.38;;;26.40;99.90;;;;;;12499306;28;20057;-38
2023/07/08 09:23:21;;;;;;;;;;;26.70;99.90;;;;;;12522926;28;20068;-41
2023/07/08 09:29:23;;;;;;;3.83;2.55;;;27.20;99.90;;;;;;12504566;28;20288;-39
2023/07/08 09:35:37;;;;;;;6.37;2.40;;;27.60;99.90;;;;;;12515023;28;20085;-38
2023/07/08 09:41:43;;;;;;;5.68;2.83;;;27.80;99.90;;;;;;12496489;28;20049;-39
2023/07/08 09:47:46;;;;;;;4.60;2.35;;;27.90;99.90;;;;;;12510539;28;20052;-38
2023/07/08 09:53:49;;;;;;;6.43;2.72;;;28.00;99.90;;;;;;12520474;28;20485;-39
2023/07/08 09:59:56;;;;;;;4.27;2.77;;;28.20;99.90;;;;;;12511620;28;20302;-38
2023/07/08 10:06:05;;;;;;;5.72;2.72;;;28.40;99.90;;;;;;12493365;28;20057;-38
2023/07/08 10:12:12;;;;;;;6.00;2.80;;;28.70;99.90;;;;;;12499711;28;20045;-38
2023/07/08 10:18:16;;;;;;;4.80;2.83;;;28.80;99.90;;;;;;12484885;28;20041;-39
2023/07/08 10:24:49;;;;;;;5.65;2.47;;;28.90;99.90;;;;;;12496939;28;20759;-38
2023/07/08 10:31:27;;;;;;;4.90;2.78;;;29.20;99.90;;;;;;12497986;28;20049;-38
2023/07/08 10:37:44;;;;;;;7.03;2.90;;;29.30;99.90;;;;;;12501107;28;20188;-39
2023/07/08 10:44:12;;;;;;;4.97;2.85;;;29.70;99.90;;;;;;12487010;28;20092;-38
2023/07/08 10:50:36;;;;;;;5.95;2.97;;;29.60;99.90;;;;;;12521615;28;20052;-38
2023/07/08 10:57:00;;;;;;;5.90;3.25;;;30.20;99.90;;;;;;12515399;28;20092;-38
2023/07/08 11:03:30;;;;;;;4.03;2.75;;;30.40;99.90;;;;;;12517974;28;20053;-38
2023/07/08 11:09:45;;;;;;;4.82;2.72;;;30.60;99.90;;;;;;12508860;28;20497;-40
2023/07/08 11:15:54;;;;;;;4.78;2.88;;;30.60;99.90;;;;;;12495598;28;20092;-38
2023/07/08 11:22:00;;;;;;;7.57;3.08;;;30.70;99.90;;;;;;12514970;28;20049;-38
2023/07/08 11:28:07;;;;;;;6.53;3.03;;;30.50;99.90;;;;;;12518492;28;20129;-39
2023/07/08 11:34:12;;;;;;;7.85;3.05;;;30.50;99.90;;;;;;12520849;28;20050;-37
2023/07/08 11:40:20;;;;;;;4.93;3.20;;;30.60;99.90;;;;;;12491194;28;20033;-39
2023/07/08 11:46:28;;;;;;;5.72;3.00;;;30.90;99.20;;;;;;12510701;28;20068;-38
2023/07/08 11:52:30;;;;;;;5.47;3.08;;;30.70;95.50;;;;;;12513774;28;20061;-38
2023/07/08 11:58:50;;;;;;;;;;;30.70;98.10;;;;;;12517708;28;20056;-39
2023/07/08 12:05:10;;;;;;;5.35;3.33;;;30.90;99.90;;;;;;12512862;28;21311;-37
2023/07/08 12:11:14;;;;;;;4.32;2.85;;;30.90;98.80;;;;;;12517154;28;20555;-38
2023/07/08 12:17:16;;;;;;;4.95;3.10;;;31.10;99.20;;;;;;12508531;28;20041;-38
2023/07/08 12:23:21;;;;;;;5.10;3.25;;;31.00;96.30;;;;;;12506938;28;20052;-38
2023/07/08 12:29:24;;;;;;;7.05;3.15;;;30.70;93.40;;;;;;12508967;28;20119;-38
2023/07/08 12:35:31;;;;;;;6.45;3.40;;;30.80;93.00;;;;;;12512629;28;20041;-38
2023/07/08 12:41:34;;;;;;;5.40;3.10;;;30.60;94.40;;;;;;12495417;28;20094;-38
2023/07/08 12:47:40;;;;;;;4.57;3.30;;;30.60;97.50;;;;;;12505597;28;20083;-38
2023/07/08 12:53:43;;;;;;;;;;;30.60;93.90;;;;;;12504771;28;20049;-38
2023/07/08 12:59:45;;;;;;;5.45;3.25;;;30.70;97.30;;;;;;12501847;28;19927;-38
2023/07/08 13:05:49;;;;;;;7.07;3.22;;;30.70;94.30;;;;;;12501301;28;20040;-38
2023/07/08 13:11:53;;;;;;;5.30;3.40;;;30.90;96.40;;;;;;12516788;28;20163;-39
2023/07/08 13:17:56;;;;;;;6.40;3.45;;;31.00;96.90;;;;;;12508951;28;20048;-37
2023/07/08 13:23:58;;;;;;;5.35;3.78;;;31.00;95.90;;;;;;12502848;28;20132;-35
2023/07/08 13:30:18;;;;;;;4.63;3.30;;;30.90;95.00;;;;;;12499546;28;20128;-35
2023/07/08 13:36:31;;;;;;;6.00;3.75;;;30.70;93.60;;;;;;12509379;28;20060;-35
2023/07/08 13:42:33;;;;;;;6.78;3.67;;;30.70;94.90;;;;;;12505080;28;20049;-35
2023/07/08 13:48:41;;;;;;;5.35;3.65;;;30.70;92.70;;;;;;12495339;28;20385;-35
2023/07/08 13:54:52;;;;;;;5.53;3.38;;;30.80;96.20;;;;;;12495395;28;20051;-36
2023/07/08 14:00:55;;;;;;;6.05;3.88;;;30.80;94.20;;;;;;12502425;28;20049;-35
2023/07/08 14:06:57;;;;;;;7.15;3.92;;;30.70;94.30;;;;;;12506585;28;20077;-36
2023/07/08 14:12:59;;;;;;;;;;;30.70;92.50;;;;;;12513141;28;20072;-35
2023/07/08 14:19:03;;;;;;;5.10;3.80;;;30.70;92.00;;;;;;12518020;28;20082;-35
2023/07/08 14:25:09;;;;;;;7.47;3.60;;;30.70;94.10;;;;;;12518065;28;20131;-36
2023/07/08 14:31:12;;;;;;;6.85;3.83;;;30.70;91.50;;;;;;12463330;28;20042;-35
2023/07/08 14:37:15;;;;;;;6.70;3.75;;;30.60;91.10;;;;;;12477259;28;20057;-35
2023/07/08 14:43:23;;;;;;;6.97;4.05;;;30.60;91.50;;;;;;12480993;28;20048;-35
2023/07/08 14:49:27;;;;;;;6.15;3.80;;;30.70;94.40;;;;;;12468585;28;20063;-35
2023/07/08 14:55:29;;;;;;;6.60;4.40;;;30.70;94.90;;;;;;12500250;28;20060;-36
2023/07/08 15:01:31;;;;;;;6.50;4.03;;;30.70;91.50;;;;;;12478918;28;20049;-35
2023/07/08 15:07:33;;;;;;;5.30;3.70;;;30.60;92.50;;;;;;12496627;28;20056;-35
2023/07/08 15:13:36;;;;;;;7.13;4.10;;;30.60;96.70;;;;;;12472740;28;20094;-36
2023/07/08 15:19:38;;;;;;;6.75;4.40;;;30.60;94.10;;;;;;12497002;28;20056;-36
2023/07/08 15:25:43;;;;;;;7.28;3.90;;;30.60;90.40;;;;;;12472150;28;20102;-36
2023/07/08 15:31:45;;;;;;;5.78;4.07;;;30.70;90.80;;;;;;12511767;28;20558;-36
2023/07/08 15:37:48;;;;;;;6.65;4.05;;;30.80;93.30;;;;;;12523582;28;20045;-36
2023/07/08 15:43:52;;;;;;;;;;;30.80;94.30;;;;;;12508992;28;20516;-36
2023/07/08 15:49:54;;;;;;;7.57;3.88;;;30.70;89.50;;;;;;12504264;28;20158;-35
2023/07/08 15:55:56;;;;;;;5.38;4.10;;;30.80;90.20;;;;;;12500441;28;20179;-35
2023/07/08 16:02:04;;;;;;;7.68;4.05;;;30.60;91.40;;;;;;12502793;28;20131;-36
2023/07/08 16:08:05;;;;;;;5.30;3.70;;;30.60;91.50;;;;;;12500090;28;20077;-35
2023/07/08 16:14:13;;;;;;;5.47;3.85;;;30.60;90.60;;;;;;12513737;28;20057;-36
2023/07/08 16:20:18;;;;;;;6.75;3.92;;;30.50;90.90;;;;;;12506404;28;20056;-36
2023/07/08 16:26:20;;;;;;;5.75;4.28;;;30.60;90.90;;;;;;12500618;28;20054;-36
2023/07/08 16:32:22;;;;;;;6.25;3.88;;;30.50;89.70;;;;;;12468325;28;20077;-36
2023/07/08 16:38:25;;;;;;;6.00;3.95;;;30.60;89.20;;;;;;12474083;28;20049;-36
2023/07/08 16:44:26;;;;;;;7.25;4.28;;;30.60;91.10;;;;;;12490375;28;20069;-36
2023/07/08 16:50:28;;;;;;;8.20;4.05;;;30.60;89.70;;;;;;12475146;28;20072;-36
2023/07/08 16:56:30;;;;;;;;;;;30.60;90.40;;;;;;12487080;28;20486;-35
2023/07/08 17:02:34;;;;;;;6.40;4.10;;;30.60;90.20;;;;;;12490658;28;19963;-36
2023/07/08 17:08:36;;;;;;;7.43;4.05;;;30.70;91.80;;;;;;12469993;28;20486;-35
2023/07/08 17:14:38;;;;;;;5.47;3.58;;;30.80;90.30;;;;;;12472866;28;20073;-36
2023/07/08 17:20:40;;;;;;;6.70;4.20;;;30.70;92.20;;;;;;12461796;28;20053;-36
2023/07/08 17:26:42;;;;;;;8.32;4.30;;;30.80;93.10;;;;;;12489391;28;20128;-36
2023/07/08 17:32:49;;;;;;;8.52;3.92;;;30.60;92.50;;;;;;12508730;28;20516;-36
2023/07/08 17:38:51;;;;;;;9.52;4.18;;;30.70;92.30;;;;;;12510615;28;20041;-36
2023/07/08 17:44:53;;;;;;;5.70;4.18;;;30.50;92.90;;;;;;12501960;28;20099;-36
2023/07/08 17:50:55;;;;;;;5.20;3.85;;;30.40;93.90;;;;;;12517161;28;20184;-36
2023/07/08 17:56:57;;;;;;;11.80;4.25;;;30.00;95.10;;;;;;12500893;28;20056;-36
2023/07/08 18:03:00;;;;;;;7.15;4.20;;;29.70;96.70;;;;;;12514167;28;20088;-36
2023/07/08 18:09:02;;;;;;;6.55;4.47;;;29.90;97.70;;;;;;12523142;28;20052;-37
2023/07/08 18:15:16;;;;;;;10.27;4.53;;;29.90;96.20;;;;;;12487094;28;20053;-35
2023/07/08 18:21:20;;;;;;;9.27;4.18;;;29.50;96.50;;;;;;12513468;28;20576;-36
2023/07/08 18:27:22;;;;;;;6.88;3.70;;;29.00;97.10;;;;;;12481314;28;20041;-35
2023/07/08 18:33:24;;;;;;;7.82;4.00;;;28.60;98.40;;;;;;12468289;28;20106;-35
2023/07/08 18:39:27;;;;;;;7.93;4.10;;;28.40;99.50;;;;;;12458064;28;20045;-35
2023/07/08 18:45:31;;;;;;;6.50;4.10;;;28.10;99.90;;;;;;12465005;28;20406;-35
2023/07/08 18:51:41;;;;;;;5.85;4.20;;;27.90;99.90;;;;;;12456276;28;20569;-35
2023/07/08 18:57:44;;;;;;;8.00;4.10;;;27.70;99.90;;;;;;12454466;28;20045;-35
2023/07/08 19:03:46;;;;;;;8.55;4.13;;;27.50;99.90;;;;;;12490837;28;20053;-35
2023/07/08 19:09:48;;;;;;;7.25;4.10;;;27.30;99.90;;;;;;12461661;28;20132;-35
2023/07/08 19:15:52;;;;;;;6.23;4.00;;;27.00;99.90;;;;;;12472433;28;20457;-35
2023/07/08 19:21:57;;;;;;;7.72;3.95;;;26.80;99.90;;;;;;12466204;28;20079;-35
2023/07/08 19:27:58;;;;;;;6.28;4.32;;;26.60;99.90;;;;;;12493835;28;20049;-35
2023/07/08 19:34:04;;;;;;;8.43;4.40;;;26.40;99.90;;;;;;12510273;28;20057;-34
2023/07/08 19:40:10;;;;;;;6.30;4.13;;;26.20;99.90;;;;;;12515751;28;20041;-35
2023/07/08 19:46:15;;;;;;;5.28;3.50;;;26.00;99.90;;;;;;12493867;28;20397;-35
2023/07/08 19:52:17;;;;;;;8.95;3.75;;;25.90;99.90;;;;;;12505187;28;20504;-35
2023/07/08 19:58:19;;;;;;;5.40;4.03;;;25.70;99.90;;;;;;12526413;28;20060;-35
2023/07/08 20:04:21;;;;;;;8.30;3.63;;;25.70;99.90;;;;;;12506190;28;20049;-35
2023/07/08 20:10:23;;;;;;;6.60;3.95;;;25.60;99.90;;;;;;12491410;28;20057;-35
2023/07/08 20:16:27;;;;;;;5.53;3.87;;;25.40;99.90;;;;;;12516488;28;20053;-35
2023/07/08 20:22:30;;;;;;;8.23;4.07;;;25.40;99.90;;;;;;12519902;28;20481;-35
2023/07/08 20:28:35;;;;;;;8.60;3.97;;;25.30;99.90;;;;;;12445541;28;20088;-35
2023/07/08 20:34:47;;;;;;;10.70;4.17;;;25.30;99.90;;;;;;12478907;28;20088;-35
2023/07/08 20:40:49;;;;;;;6.68;4.72;;;25.10;99.90;;;;;;12463996;28;20036;-35
2023/07/08 20:46:51;;;;;;;7.60;4.13;;;25.00;99.90;;;;;;12469023;28;20083;-34
2023/07/08 20:52:55;;;;;;;6.07;4.10;;;24.90;99.90;;;;;;12466869;28;20541;-34
2023/07/08 20:58:57;;;;;;;10.10;4.45;;;24.90;99.90;;;;;;12478873;28;20045;-35
2023/07/08 21:05:00;;;;;;;6.43;4.43;;;24.80;99.90;;;;;;12486016;28;20033;-35
2023/07/08 21:11:03;;;;;;;7.60;4.60;;;24.70;99.90;;;;;;12465903;28;20052;-35
2023/07/08 21:17:18;;;;;;;6.50;4.55;;;24.70;99.90;;;;;;12466681;28;20049;-35
2023/07/08 21:23:20;;;;;;;5.90;4.38;;;24.60;99.90;;;;;;12470504;28;20061;-35
2023/07/08 21:29:23;;;;;;;5.38;3.90;;;24.60;99.90;;;;;;12484591;28;20042;-35
2023/07/08 21:35:27;;;;;;;8.07;4.23;;;24.60;99.90;;;;;;12509102;28;20084;-35
2023/07/08 21:41:31;;;;;;;8.00;4.00;;;24.60;99.90;;;;;;12505826;28;20061;-35
2023/07/08 21:47:33;;;;;;;5.95;3.83;;;24.60;99.90;;;;;;12506819;28;20077;-35
2023/07/08 21:53:36;;;;;;;6.53;3.60;;;24.60;99.90;;;;;;12490893;28;20045;-35
2023/07/08 21:59:38;;;;;;;7.32;4.07;;;24.60;99.90;;;;;;12517945;28;20053;-35
2023/07/08 22:05:40;;;;;;;6.30;3.53;;;24.90;99.90;;;;;;12497807;28;20127;-34
2023/07/08 22:11:42;;;;;;;5.63;3.60;;;24.80;99.90;;;;;;12505206;28;20467;-35
2023/07/08 22:17:44;;;;;;;6.60;3.97;;;24.80;99.90;;;;;;12509209;28;20077;-35
2023/07/08 22:23:46;;;;;;;7.10;3.90;;;24.50;99.90;;;;;;12508139;28;20038;-35
2023/07/08 22:29:48;;;;;;;7.87;4.37;;;24.30;99.90;;;;;;12477061;28;20111;-34
2023/07/08 22:35:50;;;;;;;9.27;3.75;;;24.30;99.90;;;;;;12466747;28;20136;-34
2023/07/08 22:41:53;;;;;;;8.48;3.70;;;24.30;99.90;;;;;;12464360;28;20081;-35
2023/07/08 22:47:55;;;;;;;;;;;24.20;99.90;;;;;;12481773;28;20708;-35
2023/07/08 22:53:57;;;;;;;5.60;3.50;;;24.20;99.90;;;;;;12478849;28;19921;-35
2023/07/08 22:59:59;;;;;;;7.38;3.88;;;24.20;99.90;;;;;;12481345;28;20140;-34
2023/07/08 23:06:01;;;;;;;5.38;3.47;;;24.10;99.90;;;;;;12494768;28;20064;-35
2023/07/08 23:12:06;;;;;;;5.88;3.85;;;24.10;99.90;;;;;;12499289;28;20189;-35
2023/07/08 23:18:13;;;;;;;7.05;4.07;;;24.10;99.90;;;;;;12479839;28;20051;-34
2023/07/08 23:24:15;;;;;;;8.40;3.67;;;24.20;99.90;;;;;;12486154;28;20049;-35
2023/07/08 23:30:18;;;;;;;7.90;3.92;;;24.40;99.90;;;;;;12520436;28;20167;-35
2023/07/08 23:36:22;;;;;;;7.00;3.50;;;23.60;99.90;;;;;;12521942;28;20528;-35
2023/07/08 23:42:24;;;;;;;9.68;4.10;;;22.70;99.90;;;;;;12504306;28;20042;-34
2023/07/08 23:48:26;;;;;;;7.28;3.63;;;22.60;99.90;;;;;;12517694;28;20080;-35
2023/07/08 23:54:31;;;;;;;8.55;3.28;;;22.80;99.90;;;;;;12520048;28;20044;-35
